createdAt,value
2018-11-25T00:00:38.899Z,26.30
2018-11-25T00:02:45.612Z,27.37
2018-11-25T00:05:09.376Z,26.30
2018-11-25T00:12:26.056Z,28.77
2018-11-25T00:14:59.055Z,27.77
2018-11-25T00:17:10.539Z,27.73
2018-11-25T00:19:19.813Z,28.77
2018-11-25T00:21:27.842Z,27.00
2018-11-25T00:23:35.564Z,29.50
2018-11-25T00:25:40.582Z,27.83
2018-11-25T00:27:48.634Z,28.43
2018-11-25T00:29:55.526Z,27.93
2018-11-25T00:31:58.778Z,29.53
2018-11-25T00:34:03.349Z,30.97
2018-11-25T00:36:24.914Z,31.40
2018-11-25T00:38:44.933Z,31.97
2018-11-25T00:40:58.408Z,29.73
2018-11-25T00:45:39.084Z,29.77
2018-11-25T00:50:20.601Z,29.90
2018-11-25T00:52:26.767Z,30.43
2018-11-25T00:54:40.977Z,30.57
2018-11-25T00:56:47.868Z,31.37
2018-11-25T00:59:02.857Z,33.20
2018-11-25T01:01:07.524Z,31.53
2018-11-25T01:03:28.385Z,33.17
2018-11-25T01:05:41.053Z,30.03
2018-11-25T01:07:58.962Z,30.00
2018-11-25T01:10:05.628Z,31.63
2018-11-25T01:12:08.893Z,29.00
2018-11-25T01:14:17.769Z,31.00
2018-11-25T01:20:52.407Z,26.80
2018-11-25T01:22:58.763Z,27.57
2018-11-25T01:25:07.962Z,29.50
2018-11-25T01:27:14.538Z,33.03
2018-11-25T01:29:19.981Z,31.33
2018-11-25T01:31:31.890Z,29.10
2018-11-25T01:33:37.904Z,27.27
2018-11-25T01:35:44.540Z,29.60
2018-11-25T01:37:55.618Z,31.67
2018-11-25T01:39:58.925Z,32.53
2018-11-25T01:42:06.715Z,28.27
2018-11-25T01:44:12.914Z,30.70
2018-11-25T01:46:24.567Z,30.53
2018-11-25T01:48:32.987Z,29.97
2018-11-25T01:50:36.197Z,32.37
2018-11-25T01:52:39.356Z,33.10
2018-11-25T01:54:42.527Z,31.83
2018-11-25T01:56:45.608Z,31.63
2018-11-25T01:58:48.702Z,32.20
2018-11-25T02:00:51.803Z,34.00
2018-11-25T02:02:54.934Z,33.13
2018-11-25T02:04:58.055Z,35.13
2018-11-25T02:07:01.879Z,31.90
2018-11-25T02:09:11.016Z,37.70
2018-11-25T02:11:16.158Z,34.00
2018-11-25T02:13:19.275Z,36.17
2018-11-25T02:15:22.594Z,34.73
2018-11-25T02:17:25.715Z,35.37
2018-11-25T02:19:28.954Z,33.50
2018-11-25T02:21:32.117Z,34.87
2018-11-25T02:23:35.218Z,36.00
2018-11-25T02:25:38.313Z,37.40
2018-11-25T02:27:41.420Z,37.57
2018-11-25T02:29:44.591Z,39.00
2018-11-25T02:31:47.742Z,37.77
2018-11-25T02:33:50.838Z,38.10
2018-11-25T02:35:53.994Z,36.57
2018-11-25T02:37:57.085Z,36.80
2018-11-25T02:40:00.188Z,37.27
2018-11-25T02:42:03.431Z,35.53
2018-11-25T02:44:06.633Z,38.07
2018-11-25T02:46:09.828Z,36.77
2018-11-25T02:48:13.022Z,41.03
2018-11-25T02:50:25.418Z,37.23
2018-11-25T02:52:28.527Z,36.47
2018-11-25T02:54:31.705Z,37.90
2018-11-25T02:56:34.862Z,39.60
2018-11-25T02:58:37.999Z,36.20
2018-11-25T03:00:41.199Z,33.70
2018-11-25T03:02:44.294Z,38.63
2018-11-25T03:04:47.401Z,40.03
2018-11-25T03:07:00.171Z,39.37
2018-11-25T03:09:10.587Z,40.90
2018-11-25T03:11:16.575Z,44.33
2018-11-25T03:21:33.079Z,40.30
2018-11-25T03:24:08.215Z,38.30
2018-11-25T03:26:42.891Z,37.87
2018-11-25T03:31:33.504Z,41.30
2018-11-25T03:33:51.259Z,40.00
2018-11-25T03:36:03.742Z,41.77
2018-11-25T03:38:06.942Z,42.97
2018-11-25T03:40:10.916Z,42.20
2018-11-25T03:42:14.076Z,43.57
2018-11-25T03:44:17.121Z,43.00
2018-11-25T03:46:20.264Z,43.50
2018-11-25T03:48:23.329Z,43.80
2018-11-25T03:50:26.501Z,44.80
2018-11-25T03:52:29.631Z,47.60
2018-11-25T03:54:32.742Z,43.17
2018-11-25T03:56:36.584Z,42.77
2018-11-25T03:58:39.725Z,45.60
2018-11-25T04:00:42.839Z,40.20
2018-11-25T04:02:45.995Z,42.70
2018-11-25T04:04:49.237Z,39.60
2018-11-25T04:06:52.598Z,41.80
2018-11-25T04:08:57.204Z,38.77
2018-11-25T04:11:01.936Z,36.40
2018-11-25T04:13:06.535Z,37.17
2018-11-25T04:15:20.643Z,40.40
2018-11-25T04:17:25.735Z,39.07
2018-11-25T04:19:33.481Z,37.00
2018-11-25T04:21:39.826Z,41.73
2018-11-25T04:23:43.309Z,36.30
2018-11-25T04:25:46.457Z,38.90
2018-11-25T04:27:49.577Z,38.70
2018-11-25T04:29:52.662Z,40.67
2018-11-25T04:31:55.783Z,36.97
2018-11-25T04:33:58.877Z,39.60
2018-11-25T04:36:01.990Z,35.53
2018-11-25T04:38:06.092Z,39.23
2018-11-25T04:40:16.575Z,38.23
2018-11-25T04:42:29.020Z,38.00
2018-11-25T04:44:36.165Z,35.00
2018-11-25T04:46:52.771Z,38.73
2018-11-25T04:49:05.145Z,38.00
2018-11-25T04:51:15.610Z,36.70
2018-11-25T04:53:20.017Z,35.63
2018-11-25T04:55:23.235Z,36.97
2018-11-25T04:57:26.475Z,40.20
2018-11-25T04:59:29.672Z,39.10
2018-11-25T05:01:32.817Z,39.20
2018-11-25T05:03:35.926Z,40.63
2018-11-25T05:05:39.021Z,42.17
2018-11-25T05:07:43.136Z,37.70
2018-11-25T05:09:48.853Z,39.37
2018-11-25T05:11:55.215Z,40.23
2018-11-25T05:19:11.841Z,32.63
2018-11-25T05:21:31.830Z,39.60
2018-11-25T05:23:48.639Z,36.97
2018-11-25T05:31:09.309Z,38.20
2018-11-25T05:33:20.042Z,35.33
2018-11-25T05:35:37.830Z,37.60
2018-11-25T05:37:41.093Z,36.27
2018-11-25T05:39:44.265Z,38.33
2018-11-25T05:41:47.400Z,38.30
2018-11-25T05:43:50.526Z,39.73
2018-11-25T05:45:53.640Z,43.40
2018-11-25T05:47:56.750Z,39.50
2018-11-25T05:49:59.841Z,42.60
2018-11-25T05:52:03.001Z,44.43
2018-11-25T05:56:39.895Z,41.00
2018-11-25T05:58:54.003Z,42.17
2018-11-25T06:01:10.770Z,45.77
2018-11-25T06:06:14.594Z,46.30
2018-11-25T06:13:07.282Z,46.57
2018-11-25T06:15:32.975Z,42.37
2018-11-25T06:17:52.707Z,43.40
2018-11-25T06:22:33.259Z,42.40
2018-11-25T06:30:15.469Z,42.67
2018-11-25T06:35:04.534Z,45.30
2018-11-25T06:47:12.388Z,39.47
2018-11-25T06:49:36.848Z,39.13
2018-11-25T06:51:54.933Z,37.77
2018-11-25T06:54:09.814Z,42.27
2018-11-25T06:56:27.508Z,39.40
2018-11-25T07:01:07.705Z,39.80
2018-11-25T07:05:43.737Z,38.43
2018-11-25T07:07:46.943Z,36.67
2018-11-25T07:10:09.124Z,37.97
2018-11-25T07:12:28.753Z,39.47
2018-11-25T07:14:43.366Z,38.20
2018-11-25T07:16:59.464Z,38.87
2018-11-25T07:19:11.528Z,38.10
2018-11-25T07:21:27.180Z,39.70
2018-11-25T07:23:37.023Z,38.63
2018-11-25T07:25:40.148Z,41.40
2018-11-25T07:27:43.237Z,40.10
2018-11-25T07:29:46.337Z,39.90
2018-11-25T07:31:49.530Z,40.27
2018-11-25T07:33:52.803Z,40.27
2018-11-25T07:35:56.023Z,38.17
2018-11-25T07:37:59.182Z,39.67
2018-11-25T07:40:02.297Z,40.13
2018-11-25T07:42:06.563Z,39.07
2018-11-25T07:44:09.667Z,35.53
2018-11-25T07:46:12.777Z,35.10
2018-11-25T07:48:15.962Z,36.10
2018-11-25T07:50:19.812Z,34.97
2018-11-25T07:52:25.944Z,41.03
2018-11-25T07:54:45.823Z,37.80
2018-11-25T07:57:03.025Z,36.73
2018-11-25T07:59:14.628Z,36.70
2018-11-25T08:01:17.990Z,37.00
2018-11-25T08:03:29.597Z,34.53
2018-11-25T08:10:12.706Z,33.53
2018-11-25T08:12:16.110Z,35.13
2018-11-25T08:14:19.345Z,34.23
2018-11-25T08:16:23.646Z,37.50
2018-11-25T08:18:26.948Z,34.47
2018-11-25T08:20:30.179Z,33.37
2018-11-25T08:22:33.436Z,30.90
2018-11-25T08:24:36.576Z,34.07
2018-11-25T08:26:39.750Z,34.37
2018-11-25T08:28:42.919Z,35.63
2018-11-25T08:30:46.062Z,33.67
2018-11-25T08:32:49.371Z,36.20
2018-11-25T08:34:52.490Z,32.63
2018-11-25T08:36:55.603Z,34.60
2018-11-25T08:39:22.001Z,31.93
2018-11-25T08:41:28.715Z,29.43
2018-11-25T08:43:39.807Z,31.97
2018-11-25T08:45:59.442Z,33.90
2018-11-25T08:48:33.525Z,28.73
2018-11-25T08:50:56.506Z,31.23
2018-11-25T08:53:13.105Z,25.40
2018-11-25T08:55:36.596Z,28.77
2018-11-25T09:00:42.914Z,30.30
2018-11-25T09:02:56.444Z,29.83
2018-11-25T09:05:18.733Z,30.00
2018-11-25T09:09:39.343Z,28.00
2018-11-25T09:11:44.312Z,26.77
2018-11-25T09:14:06.012Z,28.40
2018-11-25T09:16:09.566Z,25.77
2018-11-25T09:21:06.612Z,27.10
2018-11-25T09:23:24.331Z,28.83
2018-11-25T09:25:33.692Z,22.97
2018-11-25T09:27:43.223Z,27.17
2018-11-25T09:29:54.578Z,27.53
2018-11-25T09:43:20.019Z,40.17
2018-11-25T10:05:00.682Z,25.93
2018-11-25T10:07:09.663Z,26.20
2018-11-25T10:09:20.880Z,25.17
2018-11-25T10:11:24.141Z,25.73
2018-11-25T10:13:32.407Z,29.13
2018-11-25T10:15:42.718Z,23.17
2018-11-25T10:17:46.937Z,29.00
2018-11-25T10:19:50.422Z,26.20
2018-11-25T10:21:54.811Z,27.73
2018-11-25T10:23:58.131Z,27.87
2018-11-25T10:27:04.841Z,26.50
2018-11-25T10:29:07.954Z,27.50
2018-11-25T10:31:11.068Z,25.90
2018-11-25T10:33:14.166Z,29.03
2018-11-25T10:35:17.335Z,28.30
2018-11-25T10:37:20.440Z,30.80
2018-11-25T10:39:24.079Z,29.53
2018-11-25T10:44:19.757Z,30.63
2018-11-25T10:46:26.183Z,31.27
2018-11-25T10:48:37.962Z,30.10
2018-11-25T10:55:34.008Z,39.07
2018-11-25T10:57:37.179Z,35.73
2018-11-25T10:59:40.276Z,34.23
2018-11-25T11:01:57.030Z,35.10
2018-11-25T11:04:01.216Z,32.20
2018-11-25T11:06:09.765Z,32.90
2018-11-25T11:08:13.087Z,32.47
2018-11-25T11:12:30.727Z,35.80
2018-11-25T11:14:33.966Z,33.93
2018-11-25T11:16:45.017Z,29.87
2018-11-25T11:19:35.802Z,29.83
2018-11-25T11:21:44.440Z,29.47
2018-11-25T11:23:48.925Z,29.90
2018-11-25T11:34:10.545Z,26.30
2018-11-25T11:51:37.379Z,20.30
2018-11-25T11:53:40.559Z,26.67
2018-11-25T11:55:44.014Z,29.30
2018-11-25T11:57:47.897Z,28.93
2018-11-25T11:59:51.101Z,29.37
2018-11-25T12:01:54.274Z,27.23
2018-11-25T12:04:04.557Z,30.47
2018-11-25T12:06:07.925Z,29.83
2018-11-25T12:08:11.096Z,29.80
2018-11-25T12:26:25.711Z,28.70
2018-11-25T12:31:03.083Z,28.97
2018-11-25T12:33:31.911Z,32.73
2018-11-25T12:35:37.869Z,31.87
2018-11-25T12:40:34.305Z,29.70
2018-11-25T12:42:37.551Z,31.97
2018-11-25T12:44:58.397Z,30.87
2018-11-25T12:51:41.913Z,30.17
2018-11-25T12:53:47.844Z,30.73
2018-11-25T12:56:21.013Z,32.00
2018-11-25T12:58:39.250Z,35.13
2018-11-25T13:01:05.185Z,30.93
2018-11-25T13:03:29.420Z,30.37
2018-11-25T13:05:32.719Z,29.50
2018-11-25T13:07:35.877Z,30.03
2018-11-25T13:09:39.094Z,27.93
2018-11-25T13:11:42.230Z,27.40
2018-11-25T13:13:45.438Z,31.20
2018-11-25T13:15:48.570Z,31.83
2018-11-25T13:17:51.774Z,28.33
2018-11-25T13:19:54.919Z,26.90
2018-11-25T13:21:58.118Z,30.43
2018-11-25T13:24:01.400Z,26.60
2018-11-25T13:26:05.524Z,29.43
2018-11-25T13:31:15.561Z,26.63
2018-11-25T13:33:21.104Z,23.07
2018-11-25T13:35:27.797Z,25.67
2018-11-25T13:37:31.500Z,25.80
2018-11-25T13:39:39.705Z,47.07
2018-11-25T13:41:44.101Z,39.43
2018-11-25T13:43:56.938Z,24.50
2018-11-25T13:46:02.364Z,26.23
2018-11-25T17:47:17.314Z,22.17
2018-11-25T17:49:20.596Z,25.20
2018-11-25T17:51:24.495Z,22.70
2018-11-25T17:55:38.946Z,22.90
2018-11-25T17:58:37.442Z,24.47
2018-11-25T18:07:55.394Z,21.13
2018-11-25T18:31:56.458Z,22.83
2018-11-25T18:37:00.993Z,27.50
2018-11-25T18:39:22.902Z,27.60
2018-11-25T18:41:44.247Z,24.90
2018-11-25T18:46:27.875Z,47.50
2018-11-25T18:53:50.401Z,25.70
2018-11-25T19:09:21.742Z,23.50
2018-11-25T19:11:31.370Z,25.53
2018-11-25T19:13:39.903Z,24.83
2018-11-25T19:15:57.650Z,25.43
2018-11-25T19:18:15.520Z,27.47
2018-11-25T19:24:50.451Z,27.57
2018-11-25T19:27:01.493Z,28.57
2018-11-25T19:29:15.537Z,29.80
2018-11-25T19:31:28.683Z,31.07
2018-11-25T19:33:38.784Z,30.27
2018-11-25T19:35:55.664Z,32.57
2018-11-25T19:38:24.556Z,29.57
2018-11-25T19:53:53.933Z,31.70
2018-11-25T19:56:02.678Z,29.10
2018-11-25T19:58:12.764Z,31.33
2018-11-25T20:00:31.553Z,31.47
2018-11-25T20:02:49.323Z,27.30
2018-11-25T20:05:02.270Z,29.27
2018-11-25T20:07:11.742Z,29.97
2018-11-25T20:09:33.539Z,28.93
2018-11-25T20:11:51.840Z,28.53
2018-11-25T20:14:14.860Z,30.70
2018-11-25T20:19:18.184Z,30.40
2018-11-25T20:26:22.915Z,32.30
2018-11-25T20:46:36.083Z,31.73
2018-11-25T20:48:53.159Z,33.07
2018-11-25T20:54:16.624Z,34.47
2018-11-25T21:00:40.522Z,31.90
2018-11-25T21:10:36.139Z,29.93
2018-11-25T21:12:51.327Z,31.47
2018-11-25T21:15:02.113Z,29.80
2018-11-25T21:17:13.230Z,32.23
2018-11-25T21:19:28.353Z,30.10
2018-11-25T21:21:44.944Z,30.10
2018-11-25T21:23:54.975Z,30.80
2018-11-25T21:26:01.319Z,31.30
2018-11-25T21:28:13.025Z,33.27
2018-11-25T21:30:29.827Z,31.63
2018-11-25T21:32:34.054Z,32.27
2018-11-25T21:34:41.899Z,32.10
2018-11-25T21:36:46.082Z,31.90
2018-11-25T21:38:53.616Z,31.17
2018-11-25T21:41:02.690Z,31.10
2018-11-25T21:43:19.930Z,32.37
2018-11-25T21:45:31.887Z,32.03
2018-11-25T21:47:45.172Z,34.07
2018-11-25T21:50:09.991Z,34.27
2018-11-25T21:52:23.712Z,30.23
2018-11-25T22:05:38.629Z,33.37
2018-11-25T22:07:54.461Z,31.67
2018-11-25T22:10:04.070Z,31.03
2018-11-25T22:12:17.953Z,31.40
2018-11-25T22:14:29.864Z,32.73
2018-11-25T22:16:43.114Z,32.67
2018-11-25T22:18:50.695Z,32.73
2018-11-25T22:21:01.822Z,34.03
2018-11-25T22:23:13.105Z,33.27
2018-11-25T22:27:54.155Z,32.87
2018-11-25T22:30:03.356Z,32.30
2018-11-25T22:32:26.282Z,32.03
2018-11-25T22:34:39.151Z,31.47
2018-11-25T22:36:48.809Z,33.87
2018-11-25T22:41:22.825Z,32.70
2018-11-25T22:43:34.577Z,33.43
2018-11-25T22:45:51.074Z,33.07
2018-11-25T22:48:00.033Z,37.20
2018-11-25T22:50:27.696Z,35.07
2018-11-25T22:52:44.127Z,35.90
2018-11-25T22:55:03.889Z,36.87
2018-11-25T22:57:33.506Z,35.17
2018-11-25T23:02:18.970Z,36.17
2018-11-25T23:04:45.638Z,33.77
2018-11-25T23:20:16.572Z,31.00
2018-11-25T23:22:39.493Z,34.67
2018-11-25T23:27:25.191Z,35.23
2018-11-25T23:29:48.043Z,35.90
2018-11-25T23:32:08.802Z,36.70
2018-11-25T23:34:31.990Z,37.50
2018-11-25T23:36:46.097Z,35.10
2018-11-25T23:38:57.798Z,36.93
2018-11-25T23:41:16.333Z,36.30
2018-11-25T23:43:27.164Z,38.20
2018-11-25T23:45:42.996Z,38.13
2018-11-25T23:47:57.044Z,35.27
2018-11-25T23:50:08.746Z,33.90
2018-11-25T23:52:22.063Z,34.73
2018-11-25T23:54:29.153Z,36.33
2018-11-25T23:56:32.471Z,35.10
2018-11-25T23:58:37.330Z,36.00
